sensor_id;sensor_type;location;lat;lon;timestamp;P1;durP1;ratioP1;P2;durP2;ratioP2
15915;SDS011;8057;47.830;-3.870;2023-11-22T00:00:28;2.30;;;2.10;;
15915;SDS011;8057;47.830;-3.870;2023-11-22T00:04:38;4.30;;;2.70;;
15915;SDS011;8057;47.830;-3.870;2023-11-22T00:08:47;5.97;;;4.80;;
15915;SDS011;8057;47.830;-3.870;2023-11-22T00:12:57;5.47;;;2.60;;
15915;SDS011;8057;47.830;-3.870;2023-11-22T00:17:07;3.10;;;2.73;;
15915;SDS011;8057;47.830;-3.870;2023-11-22T00:21:17;2.73;;;2.50;;
15915;SDS011;8057;47.830;-3.870;2023-11-22T00:25:27;5.00;;;3.27;;
15915;SDS011;8057;47.830;-3.870;2023-11-22T00:29:37;4.97;;;2.93;;
15915;SDS011;8057;47.830;-3.870;2023-11-22T00:33:46;4.77;;;2.87;;
15915;SDS011;8057;47.830;-3.870;2023-11-22T00:37:55;5.07;;;3.20;;
15915;SDS011;8057;47.830;-3.870;2023-11-22T00:42:05;5.67;;;3.40;;
15915;SDS011;8057;47.830;-3.870;2023-11-22T00:46:15;3.97;;;2.90;;
15915;SDS011;8057;47.830;-3.870;2023-11-22T00:50:24;5.03;;;3.10;;
15915;SDS011;8057;47.830;-3.870;2023-11-22T00:54:33;5.33;;;3.23;;
15915;SDS011;8057;47.830;-3.870;2023-11-22T00:58:42;4.50;;;3.00;;
15915;SDS011;8057;47.830;-3.870;2023-11-22T01:02:53;4.20;;;3.27;;
15915;SDS011;8057;47.830;-3.870;2023-11-22T01:07:02;5.20;;;3.50;;
15915;SDS011;8057;47.830;-3.870;2023-11-22T01:11:12;7.27;;;3.50;;
15915;SDS011;8057;47.830;-3.870;2023-11-22T01:15:21;5.73;;;3.30;;
15915;SDS011;8057;47.830;-3.870;2023-11-22T01:19:35;6.13;;;3.43;;
15915;SDS011;8057;47.830;-3.870;2023-11-22T01:23:44;4.03;;;2.90;;
15915;SDS011;8057;47.830;-3.870;2023-11-22T01:27:53;3.93;;;2.67;;
15915;SDS011;8057;47.830;-3.870;2023-11-22T01:32:03;2.83;;;2.47;;
15915;SDS011;8057;47.830;-3.870;2023-11-22T01:36:14;4.27;;;2.80;;
15915;SDS011;8057;47.830;-3.870;2023-11-22T01:40:23;7.37;;;3.10;;
15915;SDS011;8057;47.830;-3.870;2023-11-22T01:44:33;4.70;;;2.77;;
15915;SDS011;8057;47.830;-3.870;2023-11-22T01:48:42;4.63;;;3.07;;
15915;SDS011;8057;47.830;-3.870;2023-11-22T01:52:53;4.57;;;2.80;;
15915;SDS011;8057;47.830;-3.870;2023-11-22T01:57:02;5.10;;;2.67;;
15915;SDS011;8057;47.830;-3.870;2023-11-22T02:01:15;5.80;;;2.57;;
15915;SDS011;8057;47.830;-3.870;2023-11-22T02:05:24;3.77;;;2.37;;
15915;SDS011;8057;47.830;-3.870;2023-11-22T02:09:34;5.00;;;2.80;;
15915;SDS011;8057;47.830;-3.870;2023-11-22T02:13:43;3.20;;;2.73;;
15915;SDS011;8057;47.830;-3.870;2023-11-22T02:17:53;3.40;;;2.70;;
15915;SDS011;8057;47.830;-3.870;2023-11-22T02:22:13;5.53;;;2.73;;
15915;SDS011;8057;47.830;-3.870;2023-11-22T02:26:24;3.03;;;2.53;;
15915;SDS011;8057;47.830;-3.870;2023-11-22T02:30:33;5.67;;;2.33;;
15915;SDS011;8057;47.830;-3.870;2023-11-22T02:34:42;2.97;;;2.50;;
15915;SDS011;8057;47.830;-3.870;2023-11-22T02:38:53;4.63;;;2.97;;
15915;SDS011;8057;47.830;-3.870;2023-11-22T02:43:03;5.83;;;2.50;;
15915;SDS011;8057;47.830;-3.870;2023-11-22T02:47:15;5.50;;;2.93;;
15915;SDS011;8057;47.830;-3.870;2023-11-22T02:51:25;7.97;;;2.90;;
15915;SDS011;8057;47.830;-3.870;2023-11-22T02:55:34;4.70;;;2.73;;
15915;SDS011;8057;47.830;-3.870;2023-11-22T02:59:44;4.93;;;2.63;;
15915;SDS011;8057;47.830;-3.870;2023-11-22T03:03:53;4.40;;;2.47;;
15915;SDS011;8057;47.830;-3.870;2023-11-22T03:08:03;3.97;;;2.43;;
15915;SDS011;8057;47.830;-3.870;2023-11-22T03:12:15;6.13;;;2.37;;
15915;SDS011;8057;47.830;-3.870;2023-11-22T03:16:26;5.63;;;2.50;;
15915;SDS011;8057;47.830;-3.870;2023-11-22T03:20:39;5.10;;;2.60;;
15915;SDS011;8057;47.830;-3.870;2023-11-22T03:24:49;4.93;;;2.40;;
15915;SDS011;8057;47.830;-3.870;2023-11-22T03:28:59;4.43;;;2.20;;
15915;SDS011;8057;47.830;-3.870;2023-11-22T03:33:10;8.27;;;2.50;;
15915;SDS011;8057;47.830;-3.870;2023-11-22T03:37:21;4.77;;;2.13;;
15915;SDS011;8057;47.830;-3.870;2023-11-22T03:41:30;5.23;;;2.17;;
15915;SDS011;8057;47.830;-3.870;2023-11-22T03:45:39;5.87;;;2.20;;
15915;SDS011;8057;47.830;-3.870;2023-11-22T03:49:50;5.23;;;2.03;;
15915;SDS011;8057;47.830;-3.870;2023-11-22T03:53:59;7.20;;;2.27;;
15915;SDS011;8057;47.830;-3.870;2023-11-22T03:58:09;6.57;;;2.27;;
15915;SDS011;8057;47.830;-3.870;2023-11-22T04:02:20;2.77;;;1.97;;
15915;SDS011;8057;47.830;-3.870;2023-11-22T04:06:30;4.23;;;2.03;;
15915;SDS011;8057;47.830;-3.870;2023-11-22T04:10:40;5.23;;;1.83;;
15915;SDS011;8057;47.830;-3.870;2023-11-22T04:14:49;5.90;;;2.17;;
15915;SDS011;8057;47.830;-3.870;2023-11-22T04:18:58;4.63;;;2.10;;
15915;SDS011;8057;47.830;-3.870;2023-11-22T04:23:09;3.53;;;1.90;;
15915;SDS011;8057;47.830;-3.870;2023-11-22T04:27:20;5.10;;;2.20;;
15915;SDS011;8057;47.830;-3.870;2023-11-22T04:31:30;4.77;;;1.97;;
15915;SDS011;8057;47.830;-3.870;2023-11-22T04:35:39;4.50;;;1.57;;
15915;SDS011;8057;47.830;-3.870;2023-11-22T04:39:50;4.90;;;1.73;;
15915;SDS011;8057;47.830;-3.870;2023-11-22T04:43:59;3.17;;;1.73;;
15915;SDS011;8057;47.830;-3.870;2023-11-22T04:48:08;4.60;;;2.10;;
15915;SDS011;8057;47.830;-3.870;2023-11-22T04:52:18;5.37;;;1.83;;
15915;SDS011;8057;47.830;-3.870;2023-11-22T04:56:28;5.33;;;1.90;;
15915;SDS011;8057;47.830;-3.870;2023-11-22T05:00:37;3.20;;;1.60;;
15915;SDS011;8057;47.830;-3.870;2023-11-22T05:04:46;3.43;;;1.43;;
15915;SDS011;8057;47.830;-3.870;2023-11-22T05:08:57;4.40;;;1.70;;
15915;SDS011;8057;47.830;-3.870;2023-11-22T05:13:07;2.17;;;1.43;;
15915;SDS011;8057;47.830;-3.870;2023-11-22T05:17:16;3.23;;;1.57;;
15915;SDS011;8057;47.830;-3.870;2023-11-22T05:21:25;2.27;;;1.70;;
15915;SDS011;8057;47.830;-3.870;2023-11-22T05:25:35;3.63;;;1.80;;
15915;SDS011;8057;47.830;-3.870;2023-11-22T05:29:45;4.37;;;1.83;;
15915;SDS011;8057;47.830;-3.870;2023-11-22T05:34:01;5.00;;;2.03;;
15915;SDS011;8057;47.830;-3.870;2023-11-22T05:38:10;3.20;;;1.73;;
15915;SDS011;8057;47.830;-3.870;2023-11-22T05:42:19;3.07;;;1.90;;
15915;SDS011;8057;47.830;-3.870;2023-11-22T05:46:31;5.13;;;2.10;;
15915;SDS011;8057;47.830;-3.870;2023-11-22T05:50:40;3.00;;;1.73;;
15915;SDS011;8057;47.830;-3.870;2023-11-22T05:54:49;5.10;;;2.20;;
15915;SDS011;8057;47.830;-3.870;2023-11-22T05:58:58;3.03;;;1.90;;
15915;SDS011;8057;47.830;-3.870;2023-11-22T06:03:09;4.30;;;1.93;;
15915;SDS011;8057;47.830;-3.870;2023-11-22T06:07:19;2.63;;;1.80;;
15915;SDS011;8057;47.830;-3.870;2023-11-22T06:11:28;4.20;;;1.87;;
15915;SDS011;8057;47.830;-3.870;2023-11-22T06:15:38;4.17;;;2.20;;
15915;SDS011;8057;47.830;-3.870;2023-11-22T06:19:48;5.40;;;2.47;;
15915;SDS011;8057;47.830;-3.870;2023-11-22T06:23:57;3.17;;;2.17;;
15915;SDS011;8057;47.830;-3.870;2023-11-22T06:28:06;3.07;;;1.77;;
15915;SDS011;8057;47.830;-3.870;2023-11-22T06:32:15;3.37;;;2.00;;
15915;SDS011;8057;47.830;-3.870;2023-11-22T06:36:27;3.60;;;2.10;;
15915;SDS011;8057;47.830;-3.870;2023-11-22T06:40:36;2.70;;;1.77;;
15915;SDS011;8057;47.830;-3.870;2023-11-22T06:44:45;3.53;;;2.13;;
15915;SDS011;8057;47.830;-3.870;2023-11-22T06:48:54;3.27;;;2.03;;
15915;SDS011;8057;47.830;-3.870;2023-11-22T06:53:05;4.57;;;2.67;;
15915;SDS011;8057;47.830;-3.870;2023-11-22T06:57:14;5.43;;;2.43;;
15915;SDS011;8057;47.830;-3.870;2023-11-22T07:01:24;6.53;;;3.17;;
15915;SDS011;8057;47.830;-3.870;2023-11-22T07:05:34;5.10;;;2.50;;
15915;SDS011;8057;47.830;-3.870;2023-11-22T07:09:45;6.57;;;3.07;;
15915;SDS011;8057;47.830;-3.870;2023-11-22T07:13:55;3.27;;;2.57;;
15915;SDS011;8057;47.830;-3.870;2023-11-22T07:18:04;5.20;;;2.67;;
15915;SDS011;8057;47.830;-3.870;2023-11-22T07:22:14;5.27;;;2.33;;
15915;SDS011;8057;47.830;-3.870;2023-11-22T07:26:25;4.13;;;2.70;;
15915;SDS011;8057;47.830;-3.870;2023-11-22T07:30:34;5.20;;;2.30;;
15915;SDS011;8057;47.830;-3.870;2023-11-22T07:34:45;3.13;;;2.30;;
15915;SDS011;8057;47.830;-3.870;2023-11-22T07:38:55;6.23;;;2.50;;
15915;SDS011;8057;47.830;-3.870;2023-11-22T07:43:05;6.20;;;3.40;;
15915;SDS011;8057;47.830;-3.870;2023-11-22T07:47:14;8.13;;;3.47;;
15915;SDS011;8057;47.830;-3.870;2023-11-22T07:51:23;4.27;;;3.40;;
15915;SDS011;8057;47.830;-3.870;2023-11-22T07:55:32;4.40;;;3.37;;
15915;SDS011;8057;47.830;-3.870;2023-11-22T07:59:46;8.00;;;3.93;;
15915;SDS011;8057;47.830;-3.870;2023-11-22T08:03:55;8.97;;;3.53;;
15915;SDS011;8057;47.830;-3.870;2023-11-22T08:08:03;4.03;;;3.70;;
15915;SDS011;8057;47.830;-3.870;2023-11-22T08:12:15;3.90;;;3.60;;
15915;SDS011;8057;47.830;-3.870;2023-11-22T08:16:27;6.03;;;3.90;;
15915;SDS011;8057;47.830;-3.870;2023-11-22T08:20:36;5.07;;;3.77;;
15915;SDS011;8057;47.830;-3.870;2023-11-22T08:24:45;6.93;;;3.70;;
15915;SDS011;8057;47.830;-3.870;2023-11-22T08:28:54;4.27;;;3.53;;
15915;SDS011;8057;47.830;-3.870;2023-11-22T08:33:05;6.53;;;3.30;;
15915;SDS011;8057;47.830;-3.870;2023-11-22T08:37:14;3.83;;;3.17;;
15915;SDS011;8057;47.830;-3.870;2023-11-22T08:41:24;5.67;;;3.70;;
15915;SDS011;8057;47.830;-3.870;2023-11-22T08:45:33;4.73;;;3.30;;
15915;SDS011;8057;47.830;-3.870;2023-11-22T08:49:44;6.67;;;3.00;;
15915;SDS011;8057;47.830;-3.870;2023-11-22T08:53:55;6.33;;;3.10;;
15915;SDS011;8057;47.830;-3.870;2023-11-22T08:58:04;4.50;;;2.97;;
15915;SDS011;8057;47.830;-3.870;2023-11-22T09:02:15;6.13;;;3.20;;
15915;SDS011;8057;47.830;-3.870;2023-11-22T09:06:26;5.67;;;3.97;;
15915;SDS011;8057;47.830;-3.870;2023-11-22T09:10:36;3.37;;;2.93;;
15915;SDS011;8057;47.830;-3.870;2023-11-22T09:14:45;6.20;;;3.10;;
15915;SDS011;8057;47.830;-3.870;2023-11-22T09:18:54;6.43;;;3.33;;
15915;SDS011;8057;47.830;-3.870;2023-11-22T09:23:05;4.43;;;3.00;;
15915;SDS011;8057;47.830;-3.870;2023-11-22T09:27:15;3.73;;;2.37;;
15915;SDS011;8057;47.830;-3.870;2023-11-22T09:31:25;4.60;;;2.50;;
15915;SDS011;8057;47.830;-3.870;2023-11-22T09:35:35;4.13;;;3.00;;
15915;SDS011;8057;47.830;-3.870;2023-11-22T09:39:47;4.03;;;3.20;;
15915;SDS011;8057;47.830;-3.870;2023-11-22T09:43:56;2.90;;;2.30;;
15915;SDS011;8057;47.830;-3.870;2023-11-22T09:48:08;2.40;;;2.10;;
15915;SDS011;8057;47.830;-3.870;2023-11-22T09:52:23;4.87;;;2.23;;
15915;SDS011;8057;47.830;-3.870;2023-11-22T09:56:37;4.20;;;2.10;;
15915;SDS011;8057;47.830;-3.870;2023-11-22T10:00:48;2.50;;;2.30;;
15915;SDS011;8057;47.830;-3.870;2023-11-22T10:04:57;2.53;;;2.00;;
15915;SDS011;8057;47.830;-3.870;2023-11-22T10:09:06;2.53;;;2.20;;
15915;SDS011;8057;47.830;-3.870;2023-11-22T10:13:17;4.43;;;2.23;;
15915;SDS011;8057;47.830;-3.870;2023-11-22T10:17:26;2.43;;;2.00;;
15915;SDS011;8057;47.830;-3.870;2023-11-22T10:21:36;3.30;;;2.03;;
15915;SDS011;8057;47.830;-3.870;2023-11-22T10:25:47;5.37;;;2.33;;
15915;SDS011;8057;47.830;-3.870;2023-11-22T10:29:59;3.53;;;1.93;;
15915;SDS011;8057;47.830;-3.870;2023-11-22T10:34:09;4.43;;;2.00;;
15915;SDS011;8057;47.830;-3.870;2023-11-22T10:38:19;5.33;;;2.37;;
15915;SDS011;8057;47.830;-3.870;2023-11-22T10:42:29;8.40;;;1.97;;
15915;SDS011;8057;47.830;-3.870;2023-11-22T10:46:39;2.63;;;1.73;;
15915;SDS011;8057;47.830;-3.870;2023-11-22T10:50:49;3.53;;;2.47;;
15915;SDS011;8057;47.830;-3.870;2023-11-22T10:55:01;2.27;;;2.07;;
15915;SDS011;8057;47.830;-3.870;2023-11-22T10:59:12;4.70;;;2.27;;
15915;SDS011;8057;47.830;-3.870;2023-11-22T11:03:23;3.53;;;2.07;;
15915;SDS011;8057;47.830;-3.870;2023-11-22T11:07:38;3.37;;;2.00;;
15915;SDS011;8057;47.830;-3.870;2023-11-22T11:11:51;4.30;;;2.70;;
15915;SDS011;8057;47.830;-3.870;2023-11-22T11:16:00;4.83;;;2.10;;
15915;SDS011;8057;47.830;-3.870;2023-11-22T11:20:12;4.50;;;2.70;;
15915;SDS011;8057;47.830;-3.870;2023-11-22T11:24:22;4.73;;;2.30;;
15915;SDS011;8057;47.830;-3.870;2023-11-22T11:28:41;4.13;;;2.23;;
15915;SDS011;8057;47.830;-3.870;2023-11-22T11:32:51;2.53;;;1.93;;
15915;SDS011;8057;47.830;-3.870;2023-11-22T11:37:02;3.67;;;2.47;;
15915;SDS011;8057;47.830;-3.870;2023-11-22T11:41:12;4.23;;;2.00;;
15915;SDS011;8057;47.830;-3.870;2023-11-22T11:45:21;6.53;;;2.20;;
15915;SDS011;8057;47.830;-3.870;2023-11-22T11:49:30;4.07;;;2.13;;
15915;SDS011;8057;47.830;-3.870;2023-11-22T11:53:40;3.23;;;2.30;;
15915;SDS011;8057;47.830;-3.870;2023-11-22T11:57:49;3.30;;;2.30;;
15915;SDS011;8057;47.830;-3.870;2023-11-22T12:02:02;4.87;;;2.10;;
15915;SDS011;8057;47.830;-3.870;2023-11-22T12:06:14;2.83;;;2.30;;
15915;SDS011;8057;47.830;-3.870;2023-11-22T12:10:25;4.30;;;2.37;;
15915;SDS011;8057;47.830;-3.870;2023-11-22T12:14:34;5.03;;;2.23;;
15915;SDS011;8057;47.830;-3.870;2023-11-22T12:18:44;4.60;;;2.60;;
15915;SDS011;8057;47.830;-3.870;2023-11-22T12:22:55;2.33;;;2.13;;
15915;SDS011;8057;47.830;-3.870;2023-11-22T12:27:06;4.87;;;2.40;;
15915;SDS011;8057;47.830;-3.870;2023-11-22T12:31:18;5.07;;;2.40;;
15915;SDS011;8057;47.830;-3.870;2023-11-22T12:35:27;6.13;;;2.80;;
15915;SDS011;8057;47.830;-3.870;2023-11-22T12:39:36;2.57;;;1.87;;
15915;SDS011;8057;47.830;-3.870;2023-11-22T12:43:55;3.93;;;2.33;;
15915;SDS011;8057;47.830;-3.870;2023-11-22T12:48:20;4.47;;;2.73;;
15915;SDS011;8057;47.830;-3.870;2023-11-22T12:52:37;4.50;;;2.20;;
15915;SDS011;8057;47.830;-3.870;2023-11-22T12:56:47;2.90;;;1.97;;
15915;SDS011;8057;47.830;-3.870;2023-11-22T13:01:02;2.87;;;2.33;;
15915;SDS011;8057;47.830;-3.870;2023-11-22T13:05:12;4.37;;;2.47;;
15915;SDS011;8057;47.830;-3.870;2023-11-22T13:09:23;3.83;;;2.23;;
15915;SDS011;8057;47.830;-3.870;2023-11-22T13:13:32;4.10;;;2.03;;
15915;SDS011;8057;47.830;-3.870;2023-11-22T13:22:35;3.63;;;2.00;;
15915;SDS011;8057;47.830;-3.870;2023-11-22T13:26:44;3.43;;;2.13;;
15915;SDS011;8057;47.830;-3.870;2023-11-22T13:30:53;2.57;;;1.80;;
15915;SDS011;8057;47.830;-3.870;2023-11-22T13:35:02;4.40;;;1.83;;
15915;SDS011;8057;47.830;-3.870;2023-11-22T13:39:20;2.10;;;1.90;;
15915;SDS011;8057;47.830;-3.870;2023-11-22T13:43:30;2.37;;;1.73;;
15915;SDS011;8057;47.830;-3.870;2023-11-22T13:47:39;6.33;;;2.20;;
15915;SDS011;8057;47.830;-3.870;2023-11-22T13:51:49;3.43;;;2.33;;
15915;SDS011;8057;47.830;-3.870;2023-11-22T13:55:59;2.90;;;1.77;;
15915;SDS011;8057;47.830;-3.870;2023-11-22T14:00:15;3.33;;;2.50;;
15915;SDS011;8057;47.830;-3.870;2023-11-22T14:04:26;4.10;;;2.40;;
15915;SDS011;8057;47.830;-3.870;2023-11-22T14:08:35;2.10;;;1.90;;
15915;SDS011;8057;47.830;-3.870;2023-11-22T14:12:45;2.17;;;1.97;;
15915;SDS011;8057;47.830;-3.870;2023-11-22T14:16:54;4.07;;;2.27;;
15915;SDS011;8057;47.830;-3.870;2023-11-22T14:21:04;3.10;;;2.30;;
15915;SDS011;8057;47.830;-3.870;2023-11-22T14:25:13;3.27;;;2.40;;
15915;SDS011;8057;47.830;-3.870;2023-11-22T14:29:24;2.10;;;1.53;;
15915;SDS011;8057;47.830;-3.870;2023-11-22T14:33:32;2.67;;;2.47;;
15915;SDS011;8057;47.830;-3.870;2023-11-22T14:37:42;3.13;;;2.43;;
15915;SDS011;8057;47.830;-3.870;2023-11-22T14:41:51;2.67;;;2.17;;
15915;SDS011;8057;47.830;-3.870;2023-11-22T14:46:04;1.80;;;1.70;;
15915;SDS011;8057;47.830;-3.870;2023-11-22T14:50:13;2.20;;;2.00;;
15915;SDS011;8057;47.830;-3.870;2023-11-22T14:54:22;4.00;;;2.07;;
15915;SDS011;8057;47.830;-3.870;2023-11-22T14:58:31;2.87;;;1.97;;
15915;SDS011;8057;47.830;-3.870;2023-11-22T15:02:42;3.23;;;1.77;;
15915;SDS011;8057;47.830;-3.870;2023-11-22T15:06:53;1.77;;;1.50;;
15915;SDS011;8057;47.830;-3.870;2023-11-22T15:11:03;2.20;;;2.00;;
15915;SDS011;8057;47.830;-3.870;2023-11-22T15:15:17;2.10;;;1.87;;
15915;SDS011;8057;47.830;-3.870;2023-11-22T15:19:28;2.67;;;1.90;;
15915;SDS011;8057;47.830;-3.870;2023-11-22T15:23:37;1.80;;;1.53;;
15915;SDS011;8057;47.830;-3.870;2023-11-22T15:27:47;2.10;;;1.80;;
15915;SDS011;8057;47.830;-3.870;2023-11-22T15:31:56;2.37;;;2.10;;
15915;SDS011;8057;47.830;-3.870;2023-11-22T15:36:07;2.30;;;2.03;;
15915;SDS011;8057;47.830;-3.870;2023-11-22T15:40:16;3.90;;;2.10;;
15915;SDS011;8057;47.830;-3.870;2023-11-22T15:44:25;2.27;;;2.07;;
15915;SDS011;8057;47.830;-3.870;2023-11-22T15:48:34;3.07;;;1.80;;
15915;SDS011;8057;47.830;-3.870;2023-11-22T15:52:45;3.30;;;2.10;;
15915;SDS011;8057;47.830;-3.870;2023-11-22T15:56:54;4.37;;;2.10;;
15915;SDS011;8057;47.830;-3.870;2023-11-22T16:01:03;2.00;;;1.80;;
15915;SDS011;8057;47.830;-3.870;2023-11-22T16:05:13;2.50;;;2.30;;
15915;SDS011;8057;47.830;-3.870;2023-11-22T16:09:23;3.20;;;1.87;;
15915;SDS011;8057;47.830;-3.870;2023-11-22T16:13:34;3.20;;;1.93;;
15915;SDS011;8057;47.830;-3.870;2023-11-22T16:17:43;4.40;;;1.90;;
15915;SDS011;8057;47.830;-3.870;2023-11-22T16:21:52;2.47;;;2.27;;
15915;SDS011;8057;47.830;-3.870;2023-11-22T16:26:02;3.03;;;2.00;;
15915;SDS011;8057;47.830;-3.870;2023-11-22T16:30:12;3.10;;;2.20;;
15915;SDS011;8057;47.830;-3.870;2023-11-22T16:34:21;4.37;;;2.50;;
15915;SDS011;8057;47.830;-3.870;2023-11-22T16:38:30;3.40;;;2.17;;
15915;SDS011;8057;47.830;-3.870;2023-11-22T16:42:41;3.20;;;2.13;;
15915;SDS011;8057;47.830;-3.870;2023-11-22T16:46:51;2.57;;;2.37;;
15915;SDS011;8057;47.830;-3.870;2023-11-22T16:51:00;2.87;;;2.17;;
15915;SDS011;8057;47.830;-3.870;2023-11-22T16:55:09;2.97;;;2.00;;
15915;SDS011;8057;47.830;-3.870;2023-11-22T16:59:21;2.50;;;2.30;;
15915;SDS011;8057;47.830;-3.870;2023-11-22T17:03:31;2.43;;;2.00;;
15915;SDS011;8057;47.830;-3.870;2023-11-22T17:07:40;2.50;;;2.30;;
15915;SDS011;8057;47.830;-3.870;2023-11-22T17:11:49;2.60;;;2.40;;
15915;SDS011;8057;47.830;-3.870;2023-11-22T17:15:59;2.97;;;2.70;;
15915;SDS011;8057;47.830;-3.870;2023-11-22T17:20:09;5.90;;;3.27;;
15915;SDS011;8057;47.830;-3.870;2023-11-22T17:24:19;3.20;;;2.80;;
15915;SDS011;8057;47.830;-3.870;2023-11-22T17:28:28;4.33;;;3.17;;
15915;SDS011;8057;47.830;-3.870;2023-11-22T17:32:38;4.90;;;3.80;;
15915;SDS011;8057;47.830;-3.870;2023-11-22T17:36:48;4.93;;;4.20;;
15915;SDS011;8057;47.830;-3.870;2023-11-22T17:40:57;5.87;;;5.33;;
15915;SDS011;8057;47.830;-3.870;2023-11-22T17:45:08;7.27;;;6.57;;
15915;SDS011;8057;47.830;-3.870;2023-11-22T17:49:22;7.67;;;6.90;;
15915;SDS011;8057;47.830;-3.870;2023-11-22T17:53:31;7.70;;;6.90;;
15915;SDS011;8057;47.830;-3.870;2023-11-22T17:57:40;8.47;;;7.57;;
15915;SDS011;8057;47.830;-3.870;2023-11-22T18:01:49;9.50;;;7.83;;
15915;SDS011;8057;47.830;-3.870;2023-11-22T18:06:01;9.60;;;8.40;;
15915;SDS011;8057;47.830;-3.870;2023-11-22T18:10:10;9.97;;;8.93;;
15915;SDS011;8057;47.830;-3.870;2023-11-22T18:14:19;8.60;;;7.80;;
15915;SDS011;8057;47.830;-3.870;2023-11-22T18:18:28;8.13;;;6.93;;
15915;SDS011;8057;47.830;-3.870;2023-11-22T18:22:38;9.63;;;8.67;;
15915;SDS011;8057;47.830;-3.870;2023-11-22T18:26:47;8.27;;;7.47;;
15915;SDS011;8057;47.830;-3.870;2023-11-22T18:30:56;8.97;;;8.07;;
15915;SDS011;8057;47.830;-3.870;2023-11-22T18:35:05;8.03;;;6.90;;
15915;SDS011;8057;47.830;-3.870;2023-11-22T18:39:16;8.43;;;7.40;;
15915;SDS011;8057;47.830;-3.870;2023-11-22T18:43:25;8.20;;;7.27;;
15915;SDS011;8057;47.830;-3.870;2023-11-22T18:47:34;8.97;;;8.03;;
15915;SDS011;8057;47.830;-3.870;2023-11-22T18:51:43;9.73;;;8.77;;
15915;SDS011;8057;47.830;-3.870;2023-11-22T18:55:53;9.70;;;7.80;;
15915;SDS011;8057;47.830;-3.870;2023-11-22T19:00:02;11.17;;;9.90;;
15915;SDS011;8057;47.830;-3.870;2023-11-22T19:04:13;10.97;;;9.93;;
15915;SDS011;8057;47.830;-3.870;2023-11-22T19:08:22;11.73;;;10.53;;
15915;SDS011;8057;47.830;-3.870;2023-11-22T19:12:33;12.60;;;11.40;;
15915;SDS011;8057;47.830;-3.870;2023-11-22T19:16:42;12.60;;;11.40;;
15915;SDS011;8057;47.830;-3.870;2023-11-22T19:20:51;12.97;;;11.63;;
15915;SDS011;8057;47.830;-3.870;2023-11-22T19:25:03;12.60;;;11.13;;
15915;SDS011;8057;47.830;-3.870;2023-11-22T19:29:13;13.63;;;12.43;;
15915;SDS011;8057;47.830;-3.870;2023-11-22T19:33:22;15.47;;;13.90;;
15915;SDS011;8057;47.830;-3.870;2023-11-22T19:37:31;13.67;;;12.43;;
15915;SDS011;8057;47.830;-3.870;2023-11-22T19:41:41;11.73;;;10.63;;
15915;SDS011;8057;47.830;-3.870;2023-11-22T19:45:52;12.07;;;10.97;;
15915;SDS011;8057;47.830;-3.870;2023-11-22T19:50:03;11.47;;;10.50;;
15915;SDS011;8057;47.830;-3.870;2023-11-22T19:54:13;10.57;;;9.27;;
15915;SDS011;8057;47.830;-3.870;2023-11-22T19:58:22;9.13;;;8.33;;
15915;SDS011;8057;47.830;-3.870;2023-11-22T20:02:32;9.30;;;8.60;;
15915;SDS011;8057;47.830;-3.870;2023-11-22T20:06:41;10.97;;;9.60;;
15915;SDS011;8057;47.830;-3.870;2023-11-22T20:10:53;9.03;;;8.30;;
15915;SDS011;8057;47.830;-3.870;2023-11-22T20:15:05;9.23;;;8.43;;
15915;SDS011;8057;47.830;-3.870;2023-11-22T20:19:17;9.83;;;8.93;;
15915;SDS011;8057;47.830;-3.870;2023-11-22T20:23:26;9.30;;;8.50;;
15915;SDS011;8057;47.830;-3.870;2023-11-22T20:27:35;8.67;;;7.87;;
15915;SDS011;8057;47.830;-3.870;2023-11-22T20:31:44;8.23;;;7.43;;
15915;SDS011;8057;47.830;-3.870;2023-11-22T20:35:55;8.80;;;8.03;;
15915;SDS011;8057;47.830;-3.870;2023-11-22T20:40:05;8.47;;;7.67;;
15915;SDS011;8057;47.830;-3.870;2023-11-22T20:44:15;9.27;;;7.07;;
15915;SDS011;8057;47.830;-3.870;2023-11-22T20:48:24;7.67;;;6.97;;
15915;SDS011;8057;47.830;-3.870;2023-11-22T20:52:36;7.20;;;6.57;;
15915;SDS011;8057;47.830;-3.870;2023-11-22T20:56:46;8.60;;;7.30;;
15915;SDS011;8057;47.830;-3.870;2023-11-22T21:00:56;8.07;;;7.40;;
15915;SDS011;8057;47.830;-3.870;2023-11-22T21:05:05;8.80;;;7.83;;
15915;SDS011;8057;47.830;-3.870;2023-11-22T21:09:17;10.97;;;7.40;;
15915;SDS011;8057;47.830;-3.870;2023-11-22T21:13:26;8.47;;;7.67;;
15915;SDS011;8057;47.830;-3.870;2023-11-22T21:17:35;7.10;;;6.37;;
15915;SDS011;8057;47.830;-3.870;2023-11-22T21:21:48;7.47;;;6.67;;
15915;SDS011;8057;47.830;-3.870;2023-11-22T21:25:58;6.97;;;6.30;;
15915;SDS011;8057;47.830;-3.870;2023-11-22T21:30:10;8.87;;;7.40;;
15915;SDS011;8057;47.830;-3.870;2023-11-22T21:34:20;8.30;;;7.53;;
15915;SDS011;8057;47.830;-3.870;2023-11-22T21:38:29;6.80;;;6.03;;
15915;SDS011;8057;47.830;-3.870;2023-11-22T21:42:40;6.97;;;5.57;;
15915;SDS011;8057;47.830;-3.870;2023-11-22T21:46:50;7.33;;;5.57;;
15915;SDS011;8057;47.830;-3.870;2023-11-22T21:51:00;7.07;;;5.57;;
15915;SDS011;8057;47.830;-3.870;2023-11-22T21:55:10;6.17;;;5.53;;
15915;SDS011;8057;47.830;-3.870;2023-11-22T21:59:21;4.63;;;4.20;;
15915;SDS011;8057;47.830;-3.870;2023-11-22T22:03:31;5.37;;;4.87;;
15915;SDS011;8057;47.830;-3.870;2023-11-22T22:07:40;8.77;;;7.97;;
15915;SDS011;8057;47.830;-3.870;2023-11-22T22:11:49;7.37;;;6.67;;
15915;SDS011;8057;47.830;-3.870;2023-11-22T22:15:59;5.50;;;4.03;;
15915;SDS011;8057;47.830;-3.870;2023-11-22T22:20:09;4.80;;;4.00;;
15915;SDS011;8057;47.830;-3.870;2023-11-22T22:24:19;7.60;;;4.50;;
15915;SDS011;8057;47.830;-3.870;2023-11-22T22:28:28;4.87;;;3.90;;
15915;SDS011;8057;47.830;-3.870;2023-11-22T22:32:39;6.10;;;5.37;;
15915;SDS011;8057;47.830;-3.870;2023-11-22T22:36:50;4.70;;;4.23;;
15915;SDS011;8057;47.830;-3.870;2023-11-22T22:41:00;5.60;;;3.77;;
15915;SDS011;8057;47.830;-3.870;2023-11-22T22:45:10;5.10;;;4.43;;
15915;SDS011;8057;47.830;-3.870;2023-11-22T22:49:22;5.60;;;4.93;;
15915;SDS011;8057;47.830;-3.870;2023-11-22T22:53:31;6.67;;;4.53;;
15915;SDS011;8057;47.830;-3.870;2023-11-22T22:57:40;6.13;;;4.87;;
15915;SDS011;8057;47.830;-3.870;2023-11-22T23:01:50;5.97;;;4.43;;
15915;SDS011;8057;47.830;-3.870;2023-11-22T23:06:01;5.77;;;4.87;;
15915;SDS011;8057;47.830;-3.870;2023-11-22T23:10:10;6.33;;;5.70;;
15915;SDS011;8057;47.830;-3.870;2023-11-22T23:14:20;5.90;;;5.30;;
15915;SDS011;8057;47.830;-3.870;2023-11-22T23:18:29;7.13;;;6.30;;
15915;SDS011;8057;47.830;-3.870;2023-11-22T23:22:40;5.43;;;4.60;;
15915;SDS011;8057;47.830;-3.870;2023-11-22T23:26:50;5.60;;;5.10;;
15915;SDS011;8057;47.830;-3.870;2023-11-22T23:30:59;6.20;;;5.17;;
15915;SDS011;8057;47.830;-3.870;2023-11-22T23:35:08;5.77;;;4.17;;
15915;SDS011;8057;47.830;-3.870;2023-11-22T23:39:20;5.57;;;4.00;;
15915;SDS011;8057;47.830;-3.870;2023-11-22T23:43:30;5.97;;;4.63;;
15915;SDS011;8057;47.830;-3.870;2023-11-22T23:47:41;4.80;;;3.90;;
15915;SDS011;8057;47.830;-3.870;2023-11-22T23:51:51;4.23;;;3.70;;
15915;SDS011;8057;47.830;-3.870;2023-11-22T23:56:02;3.87;;;2.93;;
